Terminal Aerodrome Forecast
Issued by NWS

Home | Current Version | Previous Version | Text Only | Print | Product List | Glossary On
Versions: 1 2 3 4 5 6 7 8 9 10 11 12 13 14 15 16
191
FTUS46 KSEW 231121
TAFOLM
TAF
KOLM 231121Z 2312/2412 18004KT P6SM FEW008 OVC100
      TEMPO 2314/2317 4SM BR OVC005
     FM231900 18004KT P6SM SCT020 OVC080
     FM232100 23004KT P6SM SCT080 BKN100
     FM240200 VRB03KT P6SM SCT100=

USA.gov is the U.S. government's official web portal to all federal, state and local government web resources and services.